Time;durP1;ratioP1;P1;durP2;ratioP2;P2;SDS_P1;SDS_P2;PMS_P1;PMS_P2;Temp;Humidity;BMP_temperature;BMP_pressure;BME280_temperature;BME280_humidity;BME280_pressure;Samples;Min_cycle;Max_cycle;Signal;HPM_P1;HPM_P2
2021/11/06 00:00:40;;;;;;;29.63;16.38;;;4.40;99.90;;;3.10;100.00;61311.78;5074872;28;20123;-72
2021/11/06 00:03:08;;;;;;;27.27;15.57;;;4.40;99.90;;;3.10;99.96;61312.06;5096162;28;20044;-72
2021/11/06 00:05:35;;;;;;;18.45;12.27;;;4.40;99.90;;;3.11;100.00;61312.44;5080595;28;20071;-72
2021/11/06 00:08:03;;;;;;;20.23;11.20;;;4.30;99.90;;;3.12;99.44;61313.63;5100535;28;20040;-72
2021/11/06 00:10:31;;;;;;;18.83;12.30;;;4.40;99.90;;;3.14;98.74;61315.53;5096369;28;20127;-73
2021/11/06 00:12:58;;;;;;;28.25;16.35;;;4.50;99.90;;;3.13;99.67;61315.00;5094610;28;20467;-72
2021/11/06 00:15:26;;;;;;;20.90;13.48;;;4.50;99.90;;;3.12;100.00;61313.47;5040732;28;20095;-73
2021/11/06 00:17:53;;;;;;;29.17;18.85;;;4.50;99.90;;;3.10;100.00;61311.59;5092207;28;20090;-73
2021/11/06 00:20:20;;;;;;;32.45;16.40;;;4.40;99.90;;;3.09;100.00;61310.09;5082242;28;20474;-73
2021/11/06 00:22:47;;;;;;;38.80;20.20;;;4.40;99.90;;;3.07;100.00;61308.91;5093864;28;20162;-72
2021/11/06 00:25:14;;;;;;;36.50;18.40;;;4.30;99.90;;;3.07;100.00;61308.38;5073364;28;20096;-72
2021/11/06 00:27:42;;;;;;;32.38;15.15;;;4.30;99.90;;;3.08;100.00;61310.06;5093487;28;20452;-72
2021/11/06 00:30:11;;;;;;;29.35;13.55;;;4.40;99.90;;;3.09;99.95;61311.22;5093873;28;20135;-71
2021/11/06 00:32:39;;;;;;;21.98;11.98;;;4.40;99.90;;;3.11;99.31;61313.41;5095445;28;20439;-72
2021/11/06 00:35:08;;;;;;;23.65;13.20;;;4.50;99.90;;;3.12;99.04;61314.38;5075847;28;20075;-72
2021/11/06 00:37:37;;;;;;;29.58;17.00;;;4.50;99.90;;;3.12;99.89;61314.16;5076807;28;20070;-72
2021/11/06 00:40:05;;;;;;;22.88;14.57;;;4.50;99.90;;;3.10;100.00;61313.13;5077318;28;20063;-72
2021/11/06 00:42:32;;;;;;;18.00;11.25;;;4.50;99.90;;;3.10;100.00;61313.13;5095432;28;20076;-72
2021/11/06 00:45:00;;;;;;;17.92;10.63;;;4.50;99.90;;;3.10;100.00;61312.97;5093464;28;20071;-72
2021/11/06 00:47:27;;;;;;;13.30;9.13;;;4.50;99.90;;;3.12;99.91;61314.84;5076407;28;20040;-72
2021/11/06 00:49:55;;;;;;;20.08;12.35;;;4.50;99.90;;;3.12;99.57;61314.59;5093951;28;20123;-72
2021/11/06 00:52:22;;;;;;;20.60;13.70;;;4.50;99.90;;;3.12;99.63;61314.16;5100489;28;20130;-72
2021/11/06 00:54:49;;;;;;;17.17;10.93;;;4.50;99.90;;;3.11;99.97;61313.47;5076932;28;20148;-72
2021/11/06 00:57:16;;;;;;;23.75;14.02;;;4.50;99.90;;;3.09;100.00;61311.50;5082106;28;20513;-73
2021/11/06 00:59:43;;;;;;;18.98;12.48;;;4.50;99.90;;;3.07;100.00;61310.19;5087092;28;20039;-72
2021/11/06 01:02:10;;;;;;;23.33;14.52;;;4.40;99.90;;;3.05;100.00;61308.16;5080087;28;20391;-72
2021/11/06 01:04:37;;;;;;;22.98;14.60;;;4.40;99.90;;;3.02;100.00;61304.38;5090831;28;20522;-72
2021/11/06 01:07:05;;;;;;;20.40;12.38;;;4.30;99.90;;;2.99;100.00;61301.09;5072579;28;20047;-72
2021/11/06 01:09:32;;;;;;;13.38;8.35;;;4.20;99.90;;;2.97;100.00;61299.44;5076524;28;20064;-72
2021/11/06 01:11:59;;;;;;;20.83;14.13;;;4.20;99.90;;;2.97;100.00;61298.78;5093053;28;20126;-73
2021/11/06 01:14:26;;;;;;;22.63;12.95;;;4.20;99.90;;;2.96;100.00;61298.13;5091842;28;20072;-71
2021/11/06 01:16:53;;;;;;;20.35;13.13;;;4.30;99.90;;;2.94;100.00;61296.34;5084272;28;20066;-72
2021/11/06 01:19:20;;;;;;;23.67;13.73;;;4.30;99.90;;;2.92;100.00;61294.00;5086618;28;20155;-72
2021/11/06 01:21:47;;;;;;;20.13;11.90;;;4.30;99.90;;;2.90;100.00;61291.25;5095675;28;20095;-72
2021/11/06 01:24:14;;;;;;;19.75;11.35;;;4.30;99.90;;;2.88;100.00;61289.63;5053359;28;20155;-72
2021/11/06 01:26:41;;;;;;;17.10;9.93;;;4.20;99.90;;;2.89;100.00;61290.31;5075363;28;20080;-72
2021/11/06 01:29:08;;;;;;;16.88;10.73;;;4.30;99.90;;;2.89;100.00;61290.31;5070447;28;20481;-72
2021/11/06 01:31:35;;;;;;;18.77;10.95;;;4.30;99.90;;;2.88;100.00;61289.66;5086371;28;20076;-72
2021/11/06 01:34:02;;;;;;;25.25;15.45;;;4.20;99.90;;;2.88;100.00;61289.94;5098651;28;20040;-72
2021/11/06 01:36:29;;;;;;;23.02;13.90;;;4.20;99.90;;;2.87;100.00;61288.72;5086229;28;20128;-72
2021/11/06 01:38:56;;;;;;;26.73;15.45;;;4.20;99.90;;;2.85;100.00;61286.69;5089912;28;20075;-72
2021/11/06 01:41:23;;;;;;;23.83;14.50;;;4.20;99.90;;;2.83;100.00;61284.94;5096938;28;20047;-72
2021/11/06 01:43:56;;;;;;;25.05;14.00;;;4.20;99.90;;;2.82;100.00;61283.19;5086069;28;20548;-72
2021/11/06 01:46:23;;;;;;;25.85;13.90;;;4.30;99.90;;;2.80;100.00;61281.34;5073101;28;20047;-72
2021/11/06 01:48:50;;;;;;;26.05;12.73;;;4.30;99.90;;;2.78;100.00;61279.84;5091121;28;20452;-72
2021/11/06 01:51:17;;;;;;;23.75;13.93;;;4.20;99.90;;;2.76;100.00;61277.66;5085629;28;20474;-73
2021/11/06 01:53:45;;;;;;;20.75;12.90;;;4.20;99.90;;;2.75;100.00;61276.28;5071626;28;20225;-73
2021/11/06 01:56:13;;;;;;;21.10;11.93;;;4.20;99.90;;;2.73;100.00;61274.66;5074151;28;20075;-72
2021/11/06 01:58:43;;;;;;;14.50;9.63;;;4.20;99.90;;;2.75;100.00;61275.75;5074934;28;20133;-73
2021/11/06 02:01:10;;;;;;;20.77;12.02;;;4.10;99.90;;;2.75;100.00;61275.84;5072216;28;20540;-72
2021/11/06 02:03:38;;;;;;;20.52;12.77;;;4.20;99.90;;;2.73;100.00;61274.50;5090060;28;20131;-72
2021/11/06 02:06:05;;;;;;;19.40;11.98;;;4.20;99.90;;;2.73;100.00;61273.84;5088116;28;20136;-73
2021/11/06 02:08:32;;;;;;;26.38;14.60;;;4.20;99.90;;;2.71;100.00;61272.81;5071671;28;20078;-72
2021/11/06 02:10:59;;;;;;;14.80;8.02;;;4.20;99.90;;;2.72;100.00;61272.88;5085924;28;20121;-72
2021/11/06 02:13:26;;;;;;;27.05;15.13;;;4.20;99.90;;;2.72;100.00;61273.31;5075021;28;20044;-72
2021/11/06 02:15:53;;;;;;;20.20;12.25;;;4.20;99.90;;;2.72;100.00;61273.25;5075269;28;20180;-71
2021/11/06 02:18:20;;;;;;;13.43;8.02;;;4.30;99.90;;;2.73;100.00;61274.22;5064694;28;20045;-72
2021/11/06 02:20:49;;;;;;;11.73;7.88;;;4.20;99.90;;;2.74;100.00;61275.31;5081701;28;20353;-72
2021/11/06 02:23:16;;;;;;;16.52;10.45;;;4.20;99.90;;;2.75;100.00;61276.13;5078543;28;20130;-71
2021/11/06 02:25:43;;;;;;;16.02;9.57;;;4.20;99.90;;;2.75;100.00;61275.53;5097067;28;20048;-72
2021/11/06 02:28:30;;;;;;;13.63;7.95;;;4.20;99.90;;;2.76;100.00;61276.63;5092091;28;20058;-73
2021/11/06 02:30:57;;;;;;;12.75;7.95;;;4.20;99.90;;;2.76;100.00;61277.19;5072365;28;20075;-73
2021/11/06 02:33:25;;;;;;;14.10;7.75;;;4.20;99.90;;;2.78;100.00;61279.50;5088559;28;20099;-73
2021/11/06 02:35:53;;;;;;;11.07;6.85;;;4.20;99.90;;;2.81;100.00;61281.78;5052571;28;20040;-72
2021/11/06 02:38:20;;;;;;;16.08;9.27;;;4.30;99.90;;;2.83;100.00;61284.56;5085407;28;20091;-73
2021/11/06 02:40:47;;;;;;;12.05;7.20;;;4.20;99.90;;;2.85;99.83;61286.56;5087427;28;20084;-72
2021/11/06 02:43:14;;;;;;;16.00;9.48;;;4.20;99.90;;;2.86;99.65;61287.31;5057588;28;20149;-73
2021/11/06 02:45:41;;;;;;;18.20;11.25;;;4.20;99.90;;;2.86;99.97;61287.28;5075619;28;20303;-72
2021/11/06 02:48:08;;;;;;;18.77;10.63;;;4.20;99.90;;;2.86;100.00;61287.28;5084008;28;20079;-73
2021/11/06 02:50:36;;;;;;;15.93;10.07;;;4.20;99.90;;;2.85;100.00;61285.91;5069377;28;20082;-72
2021/11/06 02:53:03;;;;;;;15.73;9.13;;;4.20;99.90;;;2.85;100.00;61285.66;5089613;28;20135;-71
2021/11/06 02:55:31;;;;;;;11.52;7.38;;;4.10;99.90;;;2.86;100.00;61286.31;5072088;28;20041;-73
2021/11/06 02:57:58;;;;;;;12.68;7.63;;;4.10;99.90;;;2.86;99.95;61286.59;5075124;28;20135;-72
2021/11/06 03:00:30;;;;;;;15.65;8.77;;;4.10;99.90;;;2.85;100.00;61285.59;5067781;28;20567;-72
2021/11/06 03:02:57;;;;;;;8.48;5.32;;;4.10;99.90;;;2.85;100.00;61285.22;5073938;28;20509;-72
2021/11/06 03:05:25;;;;;;;9.48;5.85;;;4.00;99.90;;;2.84;100.00;61285.09;5069297;28;20372;-73
2021/11/06 03:07:57;;;;;;;9.18;6.05;;;4.00;99.90;;;2.85;99.62;61285.81;5081251;28;20048;-72
2021/11/06 03:10:24;;;;;;;10.27;6.25;;;4.00;99.90;;;2.83;98.87;61284.50;5087342;28;20135;-73
2021/11/06 03:12:52;;;;;;;17.85;10.73;;;3.90;99.90;;;2.82;99.97;61282.88;5052430;28;20097;-72
2021/11/06 03:15:20;;;;;;;16.88;9.05;;;3.90;99.90;;;2.80;99.84;61281.22;5076179;28;20476;-72
2021/11/06 03:17:46;;;;;;;13.23;7.68;;;3.80;99.90;;;2.79;99.44;61280.59;5061563;28;20165;-72
2021/11/06 03:20:15;;;;;;;14.95;7.95;;;3.70;99.90;;;2.78;99.12;61279.28;5069841;28;20079;-72
2021/11/06 03:22:42;;;;;;;31.52;15.38;;;3.70;99.90;;;2.76;99.23;61276.81;5083139;28;20502;-73
2021/11/06 03:25:09;;;;;;;124.97;18.90;;;3.70;99.90;;;2.71;100.00;61271.84;5092800;28;20099;-73
2021/11/06 03:27:37;;;;;;;166.30;19.73;;;3.60;99.90;;;2.66;100.00;61266.72;5067079;28;20051;-72
2021/11/06 03:30:11;;;;;;;108.88;12.65;;;3.50;99.90;;;2.61;100.00;61261.72;5065745;28;20071;-73
2021/11/06 03:32:38;;;;;;;39.00;9.20;;;3.50;99.90;;;2.57;100.00;61257.81;5069998;28;20118;-72
2021/11/06 03:35:06;;;;;;;351.10;32.22;;;3.50;99.90;;;2.51;100.00;61252.13;5089422;28;20123;-72
2021/11/06 03:37:34;;;;;;;151.75;20.40;;;3.40;99.90;;;2.46;100.00;61246.88;5087687;28;20052;-72
2021/11/06 03:40:02;;;;;;;166.48;21.15;;;3.30;99.90;;;2.42;100.00;61242.59;5095854;28;20071;-73
2021/11/06 03:42:29;;;;;;;25.17;7.72;;;3.30;99.90;;;2.39;100.00;61239.66;5086768;28;20749;-73
2021/11/06 03:44:56;;;;;;;96.97;13.35;;;3.20;99.90;;;2.35;100.00;61235.31;5088014;28;20131;-73
2021/11/06 03:47:23;;;;;;;31.00;6.50;;;3.20;99.90;;;2.31;100.00;61231.84;5082025;28;20135;-72
2021/11/06 03:49:55;;;;;;;22.90;5.35;;;3.20;99.90;;;2.29;100.00;61229.50;5084442;28;20040;-72
2021/11/06 03:52:22;;;;;;;27.20;7.35;;;3.30;99.90;;;2.27;100.00;61227.50;5085656;28;20044;-72
2021/11/06 03:54:49;;;;;;;36.33;6.82;;;3.30;99.90;;;2.26;100.00;61225.97;5072566;28;20087;-72
2021/11/06 03:57:16;;;;;;;185.18;15.63;;;3.30;99.90;;;2.22;100.00;61222.50;5089282;28;20075;-72
2021/11/06 03:59:43;;;;;;;182.98;18.98;;;3.20;99.90;;;2.17;100.00;61217.66;5084827;28;20518;-72
2021/11/06 04:02:10;;;;;;;79.45;11.27;;;3.10;99.90;;;2.12;100.00;61212.00;5091518;28;20064;-72
2021/11/06 04:04:36;;;;;;;40.53;10.32;;;3.00;99.90;;;2.07;100.00;61207.16;5056681;28;20076;-72
2021/11/06 04:07:04;;;;;;;143.70;17.02;;;2.90;99.90;;;2.02;100.00;61202.34;5094201;28;20067;-72
2021/11/06 04:09:30;;;;;;;105.07;16.98;;;2.90;99.90;;;1.97;100.00;61197.06;5089780;28;20458;-73
2021/11/06 04:11:58;;;;;;;121.35;16.00;;;2.80;99.90;;;1.92;100.00;61192.41;5092349;28;20044;-72
2021/11/06 04:14:25;;;;;;;64.10;11.40;;;2.80;99.90;;;1.88;100.00;61188.13;5072466;28;20075;-72
2021/11/06 04:16:53;;;;;;;32.85;7.88;;;2.80;99.90;;;1.86;100.00;61185.50;5084356;28;20072;-72
2021/11/06 04:19:20;;;;;;;27.75;7.78;;;2.80;99.90;;;1.84;100.00;61183.19;5073775;28;20130;-72
2021/11/06 04:21:47;;;;;;;25.25;8.25;;;2.90;99.90;;;1.82;100.00;61181.41;5089821;28;20084;-72
2021/11/06 04:24:14;;;;;;;108.43;13.10;;;2.90;99.90;;;1.79;100.00;61178.16;5086833;28;20518;-72
2021/11/06 04:26:42;;;;;;;54.28;10.85;;;2.80;99.90;;;1.76;100.00;61174.78;5074600;28;20533;-74
2021/11/06 04:29:09;;;;;;;45.35;10.98;;;2.80;99.90;;;1.73;100.00;61171.75;5055682;28;20082;-72
2021/11/06 04:31:36;;;;;;;30.33;8.02;;;2.80;99.90;;;1.71;100.00;61169.09;5074305;28;20066;-72
2021/11/06 04:34:03;;;;;;;13.15;6.60;;;2.80;99.90;;;1.69;100.00;61167.47;5091204;28;20040;-72
2021/11/06 04:36:29;;;;;;;17.63;7.45;;;2.80;99.90;;;1.68;100.00;61166.25;5067961;28;20128;-73
2021/11/06 04:38:57;;;;;;;19.90;6.68;;;2.70;99.90;;;1.67;100.00;61165.28;5091269;28;20131;-72
2021/11/06 04:41:24;;;;;;;44.67;8.55;;;2.80;99.90;;;1.65;100.00;61163.72;5063410;28;20052;-72
2021/11/06 04:43:55;;;;;;;22.42;7.18;;;2.80;99.90;;;1.63;100.00;61161.66;5079471;28;20071;-72
2021/11/06 04:46:22;;;;;;;11.73;5.82;;;2.80;99.90;;;1.62;100.00;61160.31;5050118;28;20076;-73
2021/11/06 04:48:49;;;;;;;166.13;17.73;;;2.80;99.90;;;1.59;100.00;61156.66;5090077;28;20131;-72
2021/11/06 04:51:16;;;;;;;70.75;12.90;;;2.80;99.90;;;1.55;100.00;61153.56;5065658;28;20079;-73
2021/11/06 04:53:43;;;;;;;27.92;7.38;;;2.70;99.90;;;1.53;100.00;61151.28;5068703;28;20068;-72
2021/11/06 04:56:10;;;;;;;21.35;7.07;;;2.60;99.90;;;1.52;100.00;61149.94;5075616;28;20344;-74
2021/11/06 04:58:37;;;;;;;159.13;14.45;;;2.70;99.90;;;1.51;100.00;61149.44;5086144;28;20134;-72
2021/11/06 05:01:04;;;;;;;67.45;12.35;;;2.70;99.90;;;1.50;100.00;61148.63;5076738;28;20146;-72
2021/11/06 05:03:31;;;;;;;197.55;24.10;;;2.70;99.90;;;1.48;100.00;61146.22;5069353;28;20139;-72
2021/11/06 05:05:58;;;;;;;162.45;18.25;;;2.70;99.90;;;1.45;100.00;61143.25;5077684;28;20071;-73
2021/11/06 05:08:25;;;;;;;186.15;20.45;;;2.60;99.90;;;1.42;100.00;61140.75;5082675;28;20090;-72
2021/11/06 05:10:53;;;;;;;107.75;15.77;;;2.60;99.90;;;1.39;100.00;61137.56;5095440;28;20041;-73
2021/11/06 05:13:20;;;;;;;89.78;14.20;;;2.60;99.90;;;1.34;100.00;61133.00;5069392;28;20461;-72
2021/11/06 05:15:46;;;;;;;161.07;17.85;;;2.50;99.90;;;1.29;100.00;61128.28;5087887;28;20131;-72
2021/11/06 05:18:17;;;;;;;136.43;14.55;;;2.40;99.90;;;1.24;100.00;61123.31;5064309;28;20564;-72
2021/11/06 05:20:45;;;;;;;215.82;20.95;;;;;;;1.19;100.00;61117.88;5076774;28;20564;-72
2021/11/06 05:23:13;;;;;;;82.00;11.90;;;2.20;99.90;;;1.15;100.00;61113.69;5089397;28;20089;-72
2021/11/06 05:25:44;;;;;;;69.65;13.18;;;2.20;99.90;;;1.12;100.00;61110.50;5084416;28;20067;-72
2021/11/06 05:28:13;;;;;;;116.32;17.13;;;2.20;99.90;;;1.08;100.00;61106.16;5082666;28;20070;-73
2021/11/06 05:30:44;;;;;;;131.13;17.13;;;2.10;99.90;;;1.04;100.00;61101.94;5067215;28;20131;-72
2021/11/06 05:33:12;;;;;;;103.50;13.07;;;2.20;99.90;;;1.00;100.00;61098.47;5083182;28;20087;-72
2021/11/06 05:35:40;;;;;;;96.68;15.02;;;2.10;99.90;;;0.97;100.00;61095.19;5069015;28;20105;-72
2021/11/06 05:38:08;;;;;;;36.60;10.13;;;;;;;0.97;100.00;61094.41;5080761;28;20530;-73
2021/11/06 05:40:36;;;;;;;11.25;5.85;;;;;;;0.95;100.00;61092.88;5087610;28;20070;-72
2021/11/06 05:43:03;;;;;;;101.95;16.30;;;;;;;0.93;100.00;61091.13;5089382;28;20085;-72
2021/11/06 05:45:31;;;;;;;17.00;6.40;;;;;;;0.93;100.00;61090.97;5066578;28;20442;-72
2021/11/06 05:47:59;;;;;;;32.90;9.30;;;;;;;0.94;100.00;61091.25;5070533;28;20446;-72
2021/11/06 05:50:27;;;;;;;20.92;6.53;;;;;;;0.94;100.00;61091.38;5083734;28;20438;-72
2021/11/06 05:52:55;;;;;;;20.05;7.95;;;;;;;0.95;100.00;61092.34;5082654;28;20044;-72
2021/11/06 05:55:23;;;;;;;24.20;7.15;;;;;;;0.94;100.00;61092.06;5090035;28;20121;-72
2021/11/06 05:57:51;;;;;;;107.35;14.27;;;;;;;0.92;100.00;61089.78;5074301;28;20132;-72
2021/11/06 06:00:20;;;;;;;94.47;13.40;;;;;;;0.90;100.00;61087.63;5088374;28;20185;-72
2021/11/06 06:02:49;;;;;;;29.17;8.48;;;;;;;0.89;100.00;61086.25;5063191;28;20139;-73
2021/11/06 06:05:59;;;;;;;52.20;12.45;;;;;;;0.88;100.00;61085.19;5071532;28;20087;-72
2021/11/06 06:08:26;;;;;;;59.55;11.05;;;;;;;0.86;100.00;61083.22;5066377;28;20166;-72
2021/11/06 06:10:54;;;;;;;26.20;9.05;;;;;;;0.83;100.00;61081.06;5078679;28;20052;-72
2021/11/06 06:13:32;;;;;;;71.78;13.40;;;;;;;0.82;100.00;61079.72;5066494;28;20044;-72
2021/11/06 06:16:11;;;;;;;52.20;10.43;;;;;;;0.80;100.00;61077.69;5087117;28;20489;-72
2021/11/06 06:18:46;;;;;;;14.35;7.25;;;;;;;0.79;100.00;61076.72;5082134;28;20134;-72
2021/11/06 06:21:19;;;;;;;133.05;19.08;;;;;;;0.78;100.00;61075.09;5083463;28;20203;-72
2021/11/06 06:23:52;;;;;;;18.02;8.93;;;;;;;0.78;100.00;61074.66;5089740;28;20123;-72
2021/11/06 06:26:25;;;;;;;232.30;40.35;;;;;;;0.76;100.00;61072.94;5074227;28;20162;-72
2021/11/06 06:28:57;;;;;;;42.95;17.15;;;;;;;0.75;100.00;61071.94;5081732;28;20459;-72
2021/11/06 06:31:40;;;;;;;84.35;29.80;;;;;;;0.74;100.00;61070.59;5081217;28;20055;-73
2021/11/06 06:34:19;;;;;;;86.00;21.83;;;;;;;0.71;100.00;61067.91;5068198;28;20084;-72
2021/11/06 06:36:54;;;;;;;129.85;33.13;;;;;;;0.69;100.00;61065.94;5090439;28;20132;-72
2021/11/06 06:39:32;;;;;;;182.18;32.55;;;;;;;0.66;100.00;61063.22;5083232;28;20327;-72
2021/11/06 06:42:12;;;;;;;93.95;19.63;;;;;;;0.64;100.00;61060.81;5090103;28;20074;-73
2021/11/06 06:44:51;;;;;;;103.18;19.80;;;;;;;0.61;100.00;61058.28;5088731;28;20126;-73
2021/11/06 06:47:32;;;;;;;52.88;15.45;;;;;;;0.58;100.00;61055.44;5091788;28;20127;-72
2021/11/06 06:50:12;;;;;;;31.50;11.82;;;;;;;0.57;100.00;61054.38;5077391;28;20080;-72
2021/11/06 06:52:42;;;;;;;48.85;14.38;;;;;;;0.57;100.00;61053.41;5087251;28;20127;-72
2021/11/06 06:55:13;;;;;;;146.35;17.15;;;;;;;0.55;100.00;61052.06;5089421;28;20056;-72
2021/11/06 06:57:42;;;;;;;91.25;15.27;;;;;;;0.54;100.00;61050.31;5089199;28;20441;-72
2021/11/06 07:00:12;;;;;;;134.43;24.13;;;;;;;0.51;100.00;61048.13;5068918;28;20064;-72
2021/11/06 07:02:41;;;;;;;116.80;17.90;;;;;;;0.49;100.00;61045.97;5082248;28;20127;-72
2021/11/06 07:05:10;;;;;;;61.53;13.43;;;;;;;0.49;100.00;61045.47;5081996;28;20076;-72
2021/11/06 07:07:39;;;;;;;89.35;16.67;;;;;;;0.46;100.00;61042.88;5080896;28;20105;-73
2021/11/06 07:10:08;;;;;;;169.35;19.52;;;;;;;0.44;100.00;61041.03;5066956;28;20560;-72
2021/11/06 07:12:36;;;;;;;206.85;18.85;;;;;;;0.42;100.00;61038.59;5088561;28;20131;-72
2021/11/06 07:15:05;;;;;;;237.05;43.47;;;;;;;0.39;100.00;61035.34;5086570;28;20090;-72
2021/11/06 07:17:36;;;;;;;190.20;27.90;;;;;;;0.35;100.00;61031.88;5078607;28;20055;-72
2021/11/06 07:20:06;;;;;;;107.60;17.23;;;;;;;0.33;100.00;61029.06;5068507;28;20040;-72
2021/11/06 07:22:35;;;;;;;157.55;20.13;;;;;;;0.29;100.00;61025.78;5084347;28;20093;-71
2021/11/06 07:25:06;;;;;;;64.20;12.50;;;;;;;0.27;100.00;61023.81;5068453;28;20468;-72
2021/11/06 07:27:34;;;;;;;168.13;17.15;;;;;;;0.26;100.00;61022.56;5069772;28;20102;-72
2021/11/06 07:30:03;;;;;;;95.70;14.55;;;;;;;0.25;100.00;61021.78;5079723;28;20131;-72
2021/11/06 07:32:32;;;;;;;118.13;16.83;;;;;;;0.24;100.00;61019.94;5083353;28;20162;-72
2021/11/06 07:35:00;;;;;;;81.72;12.07;;;;;;;0.24;100.00;61019.69;5068900;28;20135;-72
2021/11/06 07:37:30;;;;;;;367.98;33.45;;;;;;;0.22;100.00;61017.25;5073874;28;20506;-72
2021/11/06 07:39:58;;;;;;;216.18;23.27;;;;;;;0.20;100.00;61015.66;5054750;28;20079;-72
2021/11/06 07:42:26;;;;;;;378.25;35.17;;;;;;;0.18;100.00;61013.66;5090449;28;20047;-72
2021/11/06 07:44:54;;;;;;;249.90;26.58;;;;;;;0.17;100.00;61012.44;5074680;28;20055;-73
2021/11/06 07:47:27;;;;;;;85.30;14.38;;;;;;;0.16;100.00;61011.88;5091251;28;20048;-72
2021/11/06 07:49:54;;;;;;;52.08;15.18;;;;;;;0.17;100.00;61013.38;5069625;28;20391;-73
2021/11/06 07:52:23;;;;;;;110.13;15.23;;;;;;;0.20;100.00;61015.94;5088856;28;20149;-72
2021/11/06 07:54:50;;;;;;;54.92;11.68;;;2.10;99.90;;;0.23;100.00;61019.03;5074908;28;20079;-72
2021/11/06 07:57:17;;;;;;;29.23;10.20;;;;;;;0.28;100.00;61024.59;5067445;28;20485;-72
2021/11/06 07:59:45;;;;;;;141.50;18.35;;;;;;;0.33;100.00;61029.53;5084703;28;20442;-73
2021/11/06 08:02:12;;;;;;;223.77;21.40;;;;;;;0.37;100.00;61033.72;5083508;28;20138;-73
2021/11/06 08:04:40;;;;;;;131.55;17.10;;;;;;;0.41;100.00;61038.84;5059694;28;20087;-72
2021/11/06 08:07:07;;;;;;;75.93;14.80;;;2.70;99.90;;;0.47;100.00;61044.22;5068793;28;20441;-72
2021/11/06 08:09:34;;;;;;;14.90;9.00;;;2.80;99.90;;;0.54;100.00;61051.22;5063810;28;20110;-72
2021/11/06 08:12:01;;;;;;;16.50;8.98;;;2.90;99.90;;;0.62;100.00;61059.84;5089789;28;20075;-72
2021/11/06 08:14:28;;;;;;;53.20;11.63;;;3.10;99.90;;;0.71;99.75;61068.72;5087330;28;20535;-72
2021/11/06 08:16:56;;;;;;;165.00;21.33;;;3.40;99.90;;;0.80;98.36;61077.63;5089898;28;20040;-72
2021/11/06 08:19:24;;;;;;;28.02;9.77;;;3.50;99.90;;;0.90;97.57;61088.25;5058268;28;20123;-73
2021/11/06 08:21:52;;;;;;;24.85;9.50;;;3.60;99.90;;;1.00;97.27;61098.06;5054823;28;20131;-73
2021/11/06 08:24:20;;;;;;;20.60;9.85;;;3.80;99.90;;;1.09;97.75;61106.66;5084404;28;20122;-72
2021/11/06 08:26:47;;;;;;;21.30;8.88;;;3.90;99.90;;;1.17;97.30;61115.44;5093002;28;20077;-73
2021/11/06 08:29:14;;;;;;;90.60;12.20;;;4.00;99.90;;;1.26;96.15;61124.34;5091728;28;20075;-73
2021/11/06 08:31:41;;;;;;;138.60;16.20;;;4.00;99.90;;;1.33;96.09;61131.47;5070542;28;20485;-73
2021/11/06 08:34:08;;;;;;;97.55;14.52;;;4.00;99.90;;;1.39;96.56;61137.91;5089987;28;20123;-72
2021/11/06 08:36:36;;;;;;;91.43;12.10;;;4.00;99.90;;;1.46;97.03;61144.69;5081015;28;20127;-73
2021/11/06 08:39:05;;;;;;;12.40;6.22;;;4.00;99.90;;;1.55;96.96;61153.84;5081165;28;20186;-73
2021/11/06 08:41:32;;;;;;;68.38;8.85;;;4.20;99.90;;;1.64;96.35;61163.19;5076748;28;20131;-72
2021/11/06 08:43:59;;;;;;;22.63;6.25;;;4.30;99.90;;;1.73;96.71;61172.47;5089969;28;20090;-73
2021/11/06 08:46:26;;;;;;;8.45;5.13;;;4.40;99.90;;;1.82;96.97;61181.66;5062983;28;20128;-73
2021/11/06 08:48:53;;;;;;;9.48;5.57;;;4.60;99.90;;;1.92;96.42;61191.19;5089911;28;20181;-73
2021/11/06 08:51:21;;;;;;;8.05;5.00;;;4.70;99.90;;;2.01;96.27;61201.47;5085538;28;20497;-72
2021/11/06 08:53:49;;;;;;;7.72;4.63;;;4.80;99.90;;;2.11;95.69;61211.09;5085653;28;20048;-73
2021/11/06 08:56:17;;;;;;;10.77;6.82;;;4.90;99.90;;;2.20;95.01;61220.81;5080004;28;20510;-73
2021/11/06 08:58:45;;;;;;;8.75;6.20;;;4.90;99.90;;;2.29;95.24;61229.56;5073001;28;20106;-73
2021/11/06 09:01:13;;;;;;;11.43;7.13;;;4.90;99.90;;;2.37;95.19;61237.31;5057116;28;20122;-73
2021/11/06 09:03:40;;;;;;;15.60;9.88;;;5.00;99.90;;;2.45;95.57;61245.84;5085566;28;20164;-73
2021/11/06 09:06:08;;;;;;;13.18;8.77;;;5.00;99.90;;;2.53;96.39;61254.06;5065264;28;20053;-73
2021/11/06 09:08:42;;;;;;;15.00;9.25;;;5.10;99.90;;;2.61;98.02;61261.88;5080073;28;20098;-73
2021/11/06 09:11:12;;;;;;;14.68;10.02;;;5.20;99.90;;;2.69;99.58;61270.41;5040873;28;20445;-73
2021/11/06 09:13:40;;;;;;;15.07;8.07;;;5.30;99.90;;;2.78;100.00;61279.00;5058434;28;20470;-73
2021/11/06 09:16:10;;;;;;;11.07;6.00;;;5.50;99.90;;;2.86;100.00;61287.38;5077006;28;20130;-73
2021/11/06 09:18:38;;;;;;;10.63;6.85;;;5.50;99.90;;;2.94;100.00;61296.19;5068079;28;20127;-72
2021/11/06 09:21:11;;;;;;;8.25;5.10;;;5.60;99.90;;;3.03;100.00;61304.81;5066985;28;20040;-72
2021/11/06 09:23:39;;;;;;;5.93;4.03;;;5.70;99.90;;;3.11;100.00;61313.63;5069575;28;20159;-73
2021/11/06 09:26:08;;;;;;;6.72;3.75;;;5.80;99.90;;;3.19;100.00;61321.13;5070616;28;20344;-72
2021/11/06 09:28:42;;;;;;;8.25;5.28;;;5.90;99.90;;;3.27;100.00;61329.13;5086605;28;20055;-72
2021/11/06 09:31:13;;;;;;;8.63;4.95;;;5.90;99.90;;;3.35;100.00;61337.59;5065227;28;20048;-73
2021/11/06 09:33:43;;;;;;;6.82;4.20;;;6.00;99.90;;;3.43;100.00;61345.81;5066869;28;20565;-72
2021/11/06 09:36:11;;;;;;;9.68;6.00;;;6.10;99.90;;;3.51;100.00;61353.75;5067408;28;20127;-73
2021/11/06 09:38:40;;;;;;;12.27;5.63;;;6.10;99.90;;;3.59;99.92;61362.63;5051686;28;20119;-72
2021/11/06 09:41:10;;;;;;;9.05;5.78;;;6.20;99.90;;;3.67;99.37;61370.88;5076174;28;20050;-73
2021/11/06 09:43:39;;;;;;;7.15;5.38;;;6.30;99.90;;;3.76;99.40;61380.09;5064452;28;20079;-73
2021/11/06 09:46:09;;;;;;;10.25;6.45;;;6.30;99.90;;;3.85;99.35;61389.03;5080569;28;20072;-72
2021/11/06 09:48:38;;;;;;;9.32;6.30;;;;;;;3.94;99.43;61398.38;5070907;28;20080;-73
2021/11/06 09:51:07;;;;;;;10.57;5.95;;;;;;;4.03;99.09;61407.97;5079054;28;20048;-73
2021/11/06 09:53:40;;;;;;;11.75;6.72;;;6.70;99.90;;;4.13;98.32;61418.31;5055955;28;20098;-72
2021/11/06 09:56:21;;;;;;;9.18;5.18;;;6.90;99.90;;;4.23;98.01;61428.97;5070062;28;20098;-72
2021/11/06 09:58:49;;;;;;;7.88;5.47;;;7.00;99.90;;;4.34;97.43;61439.78;5088962;28;20048;-72
2021/11/06 10:01:16;;;;;;;13.23;7.35;;;;;;;4.44;97.03;61450.34;5073664;28;20128;-73
2021/11/06 10:03:44;;;;;;;11.95;7.43;;;;;;;4.54;96.62;61460.66;5081778;28;20523;-73
2021/11/06 10:06:24;;;;;;;11.38;7.30;;;7.30;99.90;;;4.64;96.24;61471.03;5087259;28;20079;-73
2021/11/06 10:08:54;;;;;;;16.33;7.93;;;7.50;99.90;;;4.74;96.04;61480.47;5068748;28;20102;-72
2021/11/06 10:11:29;;;;;;;12.63;7.55;;;7.60;99.90;;;4.84;95.54;61490.91;5067364;28;20106;-73
2021/11/06 10:14:08;;;;;;;11.35;7.07;;;7.80;99.90;;;4.94;94.84;61501.31;5073757;28;20075;-73
2021/11/06 10:16:41;;;;;;;10.02;6.35;;;7.90;99.90;;;5.04;94.40;61512.03;5077984;28;20083;-73
2021/11/06 10:19:31;;;;;;;9.30;6.35;;;7.90;99.90;;;5.15;94.15;61523.03;5074895;28;20632;-73
2021/11/06 10:22:13;;;;;;;12.15;7.85;;;8.00;99.90;;;5.25;94.61;61533.16;5063883;28;20486;-72
2021/11/06 10:24:54;;;;;;;12.45;7.57;;;8.00;99.90;;;5.35;93.43;61543.31;5063569;28;20048;-73
2021/11/06 10:27:32;;;;;;;11.32;6.50;;;8.10;99.90;;;5.45;92.44;61553.28;5075943;28;20147;-73
2021/11/06 10:30:02;;;;;;;8.20;5.32;;;8.20;99.90;;;5.55;91.99;61563.25;5061544;28;20056;-72
2021/11/06 10:32:29;;;;;;;11.93;7.00;;;8.30;99.90;;;5.64;91.60;61573.00;5080690;28;20071;-73
2021/11/06 10:35:18;;;;;;;10.05;6.55;;;8.40;99.90;;;5.74;91.70;61583.34;5047934;28;20139;-73
2021/11/06 10:37:49;;;;;;;8.73;5.65;;;8.50;99.90;;;5.82;91.95;61591.75;5070168;28;20478;-73